Flight Track Log - Related Links

Times and Time Zones

All times are in EDT time to prevent confusion due to time zone crossing. See the OPT332 flight status page for this flight to view local times or setup timezone preferences in your user account.

Time Position Orientation Groundspeed Altitude Reporting Facility
EDT Latitude Longitude Course Direction KTS MPH feet Rate Location/Type
Sat 02:30:24 PM 29.6683 -95.2917 357° North 163 188 2,600  Level FlightAware ADS-B
Sat 02:30:38 PM 29.6786 -95.2916 North 169 194 3,200 2,000 Climbing FlightAware ADS-B
Sat 02:30:45 PM 29.6809 -95.2914 North 169 194 3,300 2,000 Climbing FlightAware ADS-B
Sat 02:30:53 PM 29.6879 -95.2913 North 180 207 3,700 3,273 Climbing FlightAware ADS-B
Sat 02:30:56 PM 29.6910 -95.2914 358° North 185 213 3,900 4,000 Climbing FlightAware ADS-B
Sat 02:30:59 PM 29.6962 -95.2916 359° North 194 223 4,100 1,800 Climbing FlightAware ADS-B
Sat 02:31:06 PM 29.6996 -95.2916 359° North 199 229 4,200 2,000 Climbing FlightAware ADS-B
Sat 02:31:20 PM 29.7126 -95.2917 360° North 215 247 4,800 3,130 Climbing FlightAware ADS-B
Sat 02:31:29 PM 29.7260 -95.2916 North 228 262 5,400 2,800 Climbing FlightAware ADS-B
Sat 02:31:35 PM 29.7289 -95.2914 North 229 264 5,500 2,857 Climbing FlightAware ADS-B
Sat 02:31:50 PM 29.7448 -95.2911 North 229 264 6,400 3,333 Climbing FlightAware ADS-B
Sat 02:32:02 PM 29.7574 -95.2910 360° North 234 269 7,000 3,111 Climbing FlightAware ADS-B
Sat 02:32:17 PM 29.7746 -95.2909 360° North 238 274 7,800 3,882 Climbing FlightAware ADS-B
Sat 02:32:19 PM 29.7803 -95.2910 359° North 241 277 8,100 2,824 Climbing FlightAware ADS-B
Sat 02:32:34 PM 29.7928 -95.2909 360° North 245 282 8,600 2,600 Climbing FlightAware ADS-B
Sat 02:32:49 PM 29.8103 -95.2908 360° North 247 284 9,400 3,000 Climbing FlightAware ADS-B
Sat 02:33:02 PM 29.8255 -95.2906 North 254 292 10,000 3,310 Climbing FlightAware ADS-B
Sat 02:33:18 PM 29.8488 -95.2899 North 255 293 11,000 3,000 Climbing FlightAware ADS-B
Sat 02:33:24 PM 29.8513 -95.2900 357° North 254 292 11,100 2,182 Climbing FlightAware ADS-B
Sat 02:33:29 PM 29.8579 -95.2913 350° North 255 293 11,400 2,400 Climbing FlightAware ADS-B
Sat 02:33:34 PM 29.8630 -95.2935 339° North 256 295 11,500 2,500 Climbing FlightAware ADS-B
Sat 02:33:41 PM 29.8704 -95.2978 333° Northwest 256 295 11,900 3,120 Climbing FlightAware ADS-B
Sat 02:33:59 PM 29.8938 -95.3108 334° Northwest 260 299 12,800 2,516 Climbing FlightAware ADS-B
Sat 02:34:12 PM 29.9039 -95.3160 336° Northwest 264 304 13,200 2,308 Climbing FlightAware ADS-B
Sat 02:34:38 PM 29.9381 -95.3338 336° Northwest 276 318 14,300 2,250 Climbing FlightAware ADS-B
Sat 02:34:44 PM 29.9410 -95.3353 335° Northwest 273 314 14,400 2,400 Climbing FlightAware ADS-B
Sat 02:35:18 PM 29.9814 -95.3565 336° Northwest 283 326 15,900 2,850 Climbing FlightAware ADS-B
Sat 02:35:24 PM 29.9932 -95.3628 335° Northwest 283 326 16,300 1,563 Climbing FlightAware ADS-B
Sat 02:38:00 PM 30.2155 -95.5143 339° North  Level FlightAware Approximate
Sat 02:39:00 PM 30.3062 -95.5546 339° North  Level FlightAware Approximate
Sat 02:40:00 PM 30.3987 -95.5884 344° North  Level FlightAware Approximate
Sat 02:41:00 PM 30.4894 -95.6280 337° Northwest  Level FlightAware Approximate
Sat 02:42:00 PM 30.5785 -95.6726 337° Northwest  Level FlightAware Approximate
Sat 02:43:00 PM 30.6677 -95.7173 330° Northwest  Level FlightAware Approximate
Sat 02:44:00 PM 30.7540 -95.7686 337° Northwest  Level FlightAware Approximate
Sat 02:45:00 PM 30.8432 -95.8132 337° Northwest  Level FlightAware Approximate
Sat 02:45:59 PM 30.8428 -95.8650 341° North 373 429 32,600  Level Fort Worth Center
Sat 02:46:00 PM 30.9324 -95.8579 337° Northwest  Level FlightAware Approximate
Sat 02:47:00 PM 31.0201 -95.9063 332° Northwest  Level FlightAware Approximate
Sat 02:48:00 PM 31.1056 -95.9598 332° Northwest  Level FlightAware Approximate
Sat 02:49:00 PM 31.1970 -95.9975 342° North  Level FlightAware Approximate
Sat 02:50:00 PM 31.2892 -96.0330 342° North  Level FlightAware Approximate
Sat 02:51:00 PM 31.3813 -96.0692 341° North  Level FlightAware Approximate
Sat 02:51:32 PM 31.3956 -96.0732 341° North 353 406 39,700  Level FlightAware ADS-B
Sat 02:52:02 PM 31.4418 -96.0912 342° North 344 396 40,400 1,279 Climbing FlightAware ADS-B
Sat 02:52:33 PM 31.4893 -96.1097 342° North 342 394 41,000 1,161 Climbing FlightAware ADS-B
Sat 02:53:04 PM 31.5349 -96.1275 342° North 337 388 41,600 1,082 Climbing FlightAware ADS-B
Sat 02:53:34 PM 31.5792 -96.1448 342° North 334 384 42,100 857 Climbing FlightAware ADS-B
Sat 02:54:07 PM 31.6273 -96.1637 342° North 335 386 42,500 762 Climbing FlightAware ADS-B
Sat 02:54:37 PM 31.6721 -96.1812 342° North 336 387 42,900 484 Climbing FlightAware ADS-B
Sat 02:55:09 PM 31.7195 -96.1998 342° North 345 397 43,000 95 Climbing FlightAware ADS-B
Sat 02:55:40 PM 31.7677 -96.2187 342° North 355 409 43,000  Level FlightAware ADS-B
Sat 02:56:06 PM 31.8082 -96.2347 341° North 360 414 43,000  Level FlightAware ADS-B
Sat 02:56:15 PM 31.8220 -96.2414 338° Northwest 358 412 43,000  Level FlightAware ADS-B
Sat 02:58:00 PM 31.9839 -96.3022 342° North  Level FlightAware Approximate
Sat 02:59:00 PM 32.0764 -96.3375 340° North  Level FlightAware Approximate
Sat 03:00:00 PM 32.1677 -96.3766 340° North  Level FlightAware Approximate
Sat 03:01:00 PM 32.2423 -96.4481 317° Northwest  Level FlightAware Approximate
Sat 03:01:24 PM 32.2335 -96.6146 317° Northwest 370 426 43,000  Level FlightAware ADS-B
Sat 03:01:58 PM 32.2791 -96.6568 322° Northwest 372 428 43,000  Level FlightAware ADS-B
Sat 03:02:33 PM 32.3262 -96.7005 322° Northwest 373 429 43,000  Level FlightAware ADS-B
Sat 03:03:05 PM 32.3708 -96.7418 322° Northwest 375 432 43,000  Level FlightAware ADS-B
Sat 03:03:52 PM 32.4350 -96.8015 322° Northwest 376 433 43,000  Level FlightAware ADS-B
Sat 03:04:29 PM 32.4846 -96.8476 322° Northwest 377 434 43,000  Level FlightAware ADS-B
Sat 03:05:08 PM 32.5386 -96.8980 322° Northwest 377 434 43,000  Level FlightAware ADS-B
Sat 03:06:00 PM 32.6096 -96.9644 322° Northwest 377 434 43,000  Level FlightAware ADS-B
Sat 03:06:41 PM 32.6664 -97.0175 322° Northwest 377 434 43,000  Level FlightAware ADS-B
Sat 03:07:11 PM 32.6908 -97.0431 322° Northwest 372 428 43,000  Level Fort Worth Center
Sat 03:08:11 PM 32.7831 -97.1267 323° Northwest 377 434 43,000  Level Fort Worth Center
Sat 03:09:11 PM 32.8519 -97.1983 319° Northwest 377 434 43,000  Level Fort Worth Center
Sat 03:10:11 PM 32.9503 -97.2822 324° Northwest 377 434 43,000  Level Fort Worth Center
Sat 03:11:11 PM 33.0358 -97.3689 320° Northwest 395 455 43,000  Level Fort Worth Center
Sat 03:12:11 PM 33.1194 -97.4481 322° Northwest 395 455 43,000  Level Fort Worth Center
Sat 03:13:11 PM 33.2008 -97.5228 322° Northwest 377 434 43,000  Level Fort Worth Center
Sat 03:14:11 PM 33.2819 -97.5997 322° Northwest 377 434 43,000  Level Fort Worth Center
Sat 03:15:11 PM 33.3653 -97.6794 321° Northwest 377 434 43,000  Level Fort Worth Center
Sat 03:16:11 PM 33.4486 -97.7594 321° Northwest 377 434 43,000  Level Fort Worth Center
Sat 03:17:11 PM 33.5319 -97.8372 322° Northwest 377 434 43,000  Level Fort Worth Center
Sat 03:18:11 PM 33.6131 -97.9147 321° Northwest 377 434 43,000  Level Fort Worth Center
Sat 03:19:11 PM 33.6942 -97.9953 320° Northwest 377 434 43,000  Level Fort Worth Center
Sat 03:20:11 PM 33.7772 -98.0756 321° Northwest 377 434 43,000  Level Fort Worth Center
Sat 03:21:11 PM 33.8581 -98.1539 321° Northwest 377 434 43,000  Level Fort Worth Center
Sat 03:22:11 PM 33.9431 -98.2347 322° Northwest 377 434 43,000  Level Fort Worth Center
Sat 03:23:11 PM 34.0219 -98.3156 320° Northwest 377 434 43,000  Level Fort Worth Center
Sat 03:24:11 PM 34.0881 -98.3789 322° Northwest 377 434 43,000  Level Fort Worth Center
Sat 03:25:11 PM 34.1731 -98.4703 318° Northwest 372 428 43,000  Level Fort Worth Center
Sat 03:26:11 PM 34.2558 -98.5517 321° Northwest 379 436 43,000  Level Fort Worth Center
Sat 03:27:11 PM 34.3386 -98.6308 322° Northwest 379 436 43,000  Level Fort Worth Center
Sat 03:28:11 PM 34.4189 -98.7125 320° Northwest 373 429 43,000  Level Fort Worth Center
Sat 03:29:11 PM 34.5017 -98.7919 322° Northwest 373 429 43,000  Level Fort Worth Center
Sat 03:30:11 PM 34.5822 -98.8714 321° Northwest 373 429 43,000  Level Fort Worth Center
Sat 03:31:11 PM 34.6731 -98.9511 324° Northwest 373 429 43,000  Level Fort Worth Center
Sat 03:32:11 PM 34.7511 -99.0308 320° Northwest 373 429 43,000  Level Fort Worth Center
Sat 03:33:11 PM 34.8336 -99.1136 321° Northwest 373 429 43,000  Level Fort Worth Center
Sat 03:34:11 PM 34.9117 -99.1986 318° Northwest 373 429 43,000  Level Fort Worth Center
Sat 03:35:11 PM 34.9875 -99.2864 317° Northwest 373 429 43,000  Level Fort Worth Center
Sat 03:36:11 PM 35.0633 -99.3742 317° Northwest 373 429 43,000  Level Fort Worth Center
Sat 03:37:02 PM 35.1250 -99.4406 319° Northwest 376 433 43,000  Level Albuquerque Center
Sat 03:38:06 PM 35.2031 -99.5289 317° Northwest 377 434 43,000  Level Albuquerque Center
Sat 03:39:07 PM 35.2811 -99.6158 318° Northwest 378 435 43,000  Level Albuquerque Center
Sat 03:40:08 PM 35.3581 -99.7039 317° Northwest 376 433 43,000  Level Albuquerque Center
Sat 03:41:09 PM 35.4353 -99.7922 317° Northwest 378 435 43,000  Level Albuquerque Center
Sat 03:42:10 PM 35.5125 -99.8806 317° Northwest 377 434 43,000  Level Albuquerque Center
Sat 03:43:13 PM 35.5908 -99.9686 318° Northwest 378 435 43,000  Level Albuquerque Center
Sat 03:44:14 PM 35.6675 -100.0578 317° Northwest 377 434 43,000  Level Albuquerque Center
Sat 03:45:16 PM 35.7606 -100.1647 317° Northwest 378 435 43,000  Level Albuquerque Center
Sat 03:46:17 PM 35.8381 -100.2539 317° Northwest 379 436 43,000  Level Albuquerque Center
Sat 03:47:19 PM 35.9150 -100.3417 317° Northwest 377 434 43,000  Level Albuquerque Center
Sat 03:48:20 PM 35.9928 -100.4331 316° Northwest 380 437 43,000  Level Albuquerque Center
Sat 03:49:21 PM 36.0703 -100.5231 317° Northwest 381 438 43,000  Level Albuquerque Center
Sat 03:50:22 PM 36.1483 -100.6136 317° Northwest 382 440 43,000  Level Albuquerque Center
Sat 03:51:23 PM 36.2250 -100.7031 317° Northwest 380 437 43,000  Level Albuquerque Center
Sat 03:52:27 PM 36.3033 -100.7947 317° Northwest 383 441 43,000  Level Albuquerque Center
Sat 03:53:29 PM 36.3803 -100.8856 316° Northwest 382 440 43,000  Level Albuquerque Center
Sat 03:54:29 PM 36.4672 -100.9883 316° Northwest 383 441 43,000  Level Albuquerque Center
Sat 03:55:30 PM 36.5422 -101.0775 316° Northwest 387 445 43,000  Level Albuquerque Center
Sat 03:56:31 PM 36.6283 -101.1794 316° Northwest 383 441 43,000  Level Albuquerque Center
Sat 03:57:35 PM 36.7031 -101.2700 316° Northwest 387 445 43,000  Level Albuquerque Center
Sat 03:58:35 PM 36.7906 -101.3758 316° Northwest 391 450 43,000  Level Albuquerque Center
Sat 03:59:47 PM 36.8772 -101.4789 316° Northwest 386 444 43,000  Level Kansas City Center
Sat 04:00:50 PM 36.9644 -101.5831 316° Northwest 386 444 43,000  Level Kansas City Center
Sat 04:01:51 PM 37.0381 -101.6733 316° Northwest 387 445 43,000  Level Kansas City Center
Sat 04:02:55 PM 37.1119 -101.7619 316° Northwest 385 443 43,000  Level Kansas City Center
Sat 04:03:56 PM 37.1997 -101.8681 316° Northwest 389 448 43,000  Level Kansas City Center
Sat 04:04:57 PM 37.2733 -101.9578 316° Northwest 386 444 43,000  Level Kansas City Center
Sat 04:05:58 PM 37.3603 -102.0633 316° Northwest 387 445 43,000  Level Kansas City Center
Sat 04:06:59 PM 37.4342 -102.1544 316° Northwest 388 447 43,000  Level Kansas City Center
Sat 04:08:02 PM 37.5081 -102.2447 316° Northwest 387 445 43,000  Level Kansas City Center
Sat 04:09:02 PM 37.5939 -102.3514 315° West 387 445 43,000  Level Kansas City Center
Sat 04:10:06 PM 37.6686 -102.4433 316° Northwest 389 448 43,000  Level Kansas City Center
Sat 04:11:06 PM 37.7544 -102.5489 316° Northwest 387 445 43,000  Level Kansas City Center
Sat 04:12:07 PM 37.8281 -102.6417 315° West 389 448 43,000  Level Kansas City Center
Sat 04:13:10 PM 37.9017 -102.7336 315° West 388 447 43,000  Level Kansas City Center
Sat 04:14:37 PM 38.0192 -102.8800 316° Northwest 389 448 43,000  Level Denver Center
Sat 04:15:51 PM 38.0978 -102.9797 315° West 388 447 43,000  Level Denver Center
Sat 04:16:53 PM 38.1969 -103.1022 316° Northwest 390 449 43,000  Level Denver Center
Sat 04:17:55 PM 38.2750 -103.2033 315° West 388 447 43,000  Level Denver Center
Sat 04:18:56 PM 38.3558 -103.3047 315° West 391 450 43,000  Level Denver Center
Sat 04:19:58 PM 38.4283 -103.3992 314° West 391 450 43,000  Level Denver Center
Sat 04:21:00 PM 38.5083 -103.4997 315° West 392 451 43,000  Level Denver Center
Sat 04:22:13 PM 38.5931 -103.6097 315° West 390 449 43,000  Level Denver Center
Sat 04:23:16 PM 38.6797 -103.7197 315° West 392 451 43,000  Level Denver Center
Sat 04:24:17 PM 38.7642 -103.8317 314° West 391 450 43,000  Level Denver Center
Sat 04:25:19 PM 38.8397 -103.9281 315° West 398 458 43,000  Level Denver Center
Sat 04:26:21 PM 38.9183 -104.0303 315° West 392 451 43,000  Level Denver Center
Sat 04:27:22 PM 38.9797 -104.1117 314° West 395 455 43,000  Level Denver Center
Sat 04:28:24 PM 39.0733 -104.2342 315° West 398 458 43,000  Level Denver Center
Sat 04:29:26 PM 39.1661 -104.3561 314° West 400 460 43,000  Level Denver Center
Sat 04:30:28 PM 39.2442 -104.4589 314° West 400 460 43,000  Level Denver Center
Sat 04:31:29 PM 39.3203 -104.5600 314° West 391 450 43,000  Level Denver Center
Sat 04:32:31 PM 39.3825 -104.6425 314° West 396 456 43,000  Level Denver Center
Sat 04:33:33 PM 39.4797 -104.7756 313° West 408 470 43,000  Level Denver Center
Sat 04:34:34 PM 39.5553 -104.8767 314° West 393 452 43,000  Level Denver Center
Sat 04:35:36 PM 39.6389 -104.9897 314° West 401 461 43,000  Level Denver Center
Sat 04:36:38 PM 39.7150 -105.0922 314° West 392 451 43,000  Level Denver Center
Sat 04:37:40 PM 39.7856 -105.1864 314° West 391 450 43,000  Level Denver Center
Sat 04:38:41 PM 39.8625 -105.2892 314° West 396 456 43,000  Level Denver Center
Sat 04:39:43 PM 39.9542 -105.4161 313° West 397 457 43,000  Level Denver Center
Sat 04:40:45 PM 40.0325 -105.5208 314° West 404 465 43,000  Level Denver Center
Sat 04:41:46 PM 40.1081 -105.6256 313° West 396 456 43,000  Level Denver Center
Sat 04:42:48 PM 40.1856 -105.7303 314° West 398 458 43,000  Level Denver Center
Sat 04:43:50 PM 40.2611 -105.8339 314° West 391 450 43,000  Level Denver Center
Sat 04:44:52 PM 40.3381 -105.9411 313° West 402 463 43,000  Level Denver Center
Sat 04:45:53 PM 40.4150 -106.0486 313° West 403 464 43,000  Level Denver Center
Sat 04:46:55 PM 40.4986 -106.1653 313° West 407 468 43,000  Level Denver Center
Sat 04:47:57 PM 40.5856 -106.2864 313° West 408 470 43,000  Level Denver Center
Sat 04:48:58 PM 40.6583 -106.3894 313° West 403 464 43,000  Level Denver Center
Sat 04:50:00 PM 40.7444 -106.5103 313° West 405 466 43,000  Level Denver Center
Sat 04:51:02 PM 40.8150 -106.6111 313° West 403 464 43,000  Level Denver Center
Sat 04:52:03 PM 40.8978 -106.7286 313° West 393 452 43,000  Level Denver Center
Sat 04:53:05 PM 40.9681 -106.8292 313° West 388 447 43,000  Level Denver Center
Sat 04:54:07 PM 41.0386 -106.9297 313° West 391 450 43,000  Level Denver Center
Sat 04:55:08 PM 41.1206 -107.0492 312° West 393 452 43,000  Level Denver Center
Sat 04:56:10 PM 41.1939 -107.1536 313° West 400 460 43,000  Level Denver Center
Sat 04:57:11 PM 41.2783 -107.2764 312° West 404 465 43,000  Level Denver Center
Sat 04:58:13 PM 41.3497 -107.3808 312° West 400 460 43,000  Level Denver Center
Sat 04:59:27 PM 41.4342 -107.5044 312° West 403 464 43,000  Level Denver Center
Sat 05:00:29 PM 41.5192 -107.6269 313° West 404 465 43,000  Level Denver Center
Sat 05:01:30 PM 41.6031 -107.7514 312° West 405 466 43,000  Level Denver Center
Sat 05:02:32 PM 41.6758 -107.8586 312° West 407 468 43,000  Level Denver Center
Sat 05:03:37 PM 41.7594 -107.9850 312° West 407 468 43,000  Level Salt Lake Center
Sat 05:04:38 PM 41.8436 -108.1103 312° West 406 467 43,000  Level Salt Lake Center
Sat 05:05:40 PM 41.9161 -108.2192 312° West 408 470 43,000  Level Salt Lake Center
Sat 05:06:42 PM 41.9886 -108.3283 312° West 412 474 43,000  Level Salt Lake Center
Sat 05:07:43 PM 42.0733 -108.4564 312° West 412 474 43,000  Level Salt Lake Center
Sat 05:08:45 PM 42.1450 -108.5644 312° West 407 468 43,000  Level Salt Lake Center
Sat 05:09:47 PM 42.2286 -108.6922 311° West 409 471 43,000  Level Salt Lake Center
Sat 05:10:48 PM 42.3006 -108.8031 311° West 410 472 43,000  Level Salt Lake Center
Sat 05:11:50 PM 42.3847 -108.9333 311° West 413 475 43,000  Level Salt Lake Center
Sat 05:12:51 PM 42.4564 -109.0447 311° West 412 474 43,000  Level Salt Lake Center
Sat 05:13:53 PM 42.5389 -109.1728 311° West 407 468 43,000 -435 Level Salt Lake Center
Sat 05:14:55 PM 42.6103 -109.2822 312° West 406 467 42,100 -1,415 Descending Salt Lake Center
Sat 05:15:56 PM 42.6808 -109.3933 311° West 407 468 40,100 -2,146 Descending Salt Lake Center
Sat 05:16:58 PM 42.7619 -109.5208 311° West 401 461 37,700 -2,195 Descending Salt Lake Center
Sat 05:17:59 PM 42.8292 -109.6278 311° West 393 452 35,600 -2,195 Descending Salt Lake Center
Sat 05:19:01 PM 42.9122 -109.7544 312° West 402 463 33,200 -2,274 Descending Salt Lake Center
Sat 05:20:03 PM 42.9908 -109.8803 311° West 414 476 30,900 -2,146 Descending Salt Lake Center
Sat 05:21:04 PM 43.0633 -109.9967 310° West 420 483 28,800 -2,244 Descending Salt Lake Center
Sat 05:22:06 PM 43.1472 -110.1297 311° West 416 479 26,300 -2,226 Descending Salt Lake Center
Sat 05:23:08 PM 43.2167 -110.2419 310° West 406 467 24,200 -2,293 Descending Salt Lake Center
Sat 05:24:09 PM 43.2886 -110.3550 311° West 389 448 21,600 -2,195 Descending Salt Lake Center
Sat 05:25:11 PM 43.3553 -110.4631 310° West 368 423 19,700 -2,129 Descending Salt Lake Center
Sat 05:26:13 PM 43.4158 -110.5600 311° West 336 387 17,200 -1,790 Descending Salt Lake Center
Sat 05:27:15 PM 43.4722 -110.6525 310° West 318 366 16,000 -585 Descending Salt Lake Center
Sat 05:28:16 PM 43.5236 -110.7369 310° West 288 331 16,000 -244 Level Salt Lake Center
Sat 05:29:18 PM 43.5758 -110.8239 310° West 285 328 15,500 -823 Descending Salt Lake Center
Sat 05:30:20 PM 43.6228 -110.9008 310° West 261 300 14,300 -1,902 Descending Salt Lake Center
Sat 05:31:21 PM 43.6647 -110.9808 306° West 260 299 11,600 -2,656 Descending Salt Lake Center

Login

Don't have an account? Register now (free) for customized features, flight alerts, and more!